sensor_id;sensor_type;location;lat;lon;timestamp;pressure;altitude;pressure_sealevel;temperature;humidity
8047;BME280;67150;42.516;23.358;2023-08-08T00:00:50;88367.47;;;19.92;57.75
8047;BME280;67150;42.516;23.358;2023-08-08T00:03:18;88357.72;;;19.96;57.78
8047;BME280;67150;42.516;23.358;2023-08-08T00:05:45;88367.28;;;19.94;57.65
8047;BME280;67150;42.516;23.358;2023-08-08T00:08:12;88369.38;;;19.90;57.85
8047;BME280;67150;42.516;23.358;2023-08-08T00:10:39;88383.94;;;19.90;57.84
8047;BME280;67150;42.516;23.358;2023-08-08T00:13:07;88401.50;;;19.93;57.84
8047;BME280;67150;42.516;23.358;2023-08-08T00:15:35;88374.56;;;19.74;57.77
8047;BME280;67150;42.516;23.358;2023-08-08T00:18:03;88398.16;;;19.92;57.77
8047;BME280;67150;42.516;23.358;2023-08-08T00:20:31;88395.75;;;19.91;57.70
8047;BME280;67150;42.516;23.358;2023-08-08T00:22:58;88392.38;;;19.90;57.70
8047;BME280;67150;42.516;23.358;2023-08-08T00:25:26;88388.06;;;19.91;57.53
8047;BME280;67150;42.516;23.358;2023-08-08T00:27:53;88398.47;;;19.89;57.96
8047;BME280;67150;42.516;23.358;2023-08-08T00:30:20;88391.75;;;19.88;58.00
8047;BME280;67150;42.516;23.358;2023-08-08T00:32:49;88392.38;;;19.90;57.84
8047;BME280;67150;42.516;23.358;2023-08-08T00:35:16;88394.16;;;19.90;57.79
8047;BME280;67150;42.516;23.358;2023-08-08T00:37:44;88398.47;;;19.89;57.89
8047;BME280;67150;42.516;23.358;2023-08-08T00:40:11;88399.63;;;19.87;57.92
8047;BME280;67150;42.516;23.358;2023-08-08T00:42:38;88383.81;;;19.83;57.91
8047;BME280;67150;42.516;23.358;2023-08-08T00:45:06;88384.28;;;19.87;57.89
8047;BME280;67150;42.516;23.358;2023-08-08T00:47:34;88373.38;;;19.85;58.03
8047;BME280;67150;42.516;23.358;2023-08-08T00:50:04;88378.34;;;19.86;57.94
8047;BME280;67150;42.516;23.358;2023-08-08T00:52:33;88380.28;;;19.84;58.06
8047;BME280;67150;42.516;23.358;2023-08-08T00:55:01;88378.50;;;19.85;58.02
8047;BME280;67150;42.516;23.358;2023-08-08T00:57:29;88383.47;;;19.86;57.83
8047;BME280;67150;42.516;23.358;2023-08-08T00:59:56;88383.81;;;19.83;58.08
8047;BME280;67150;42.516;23.358;2023-08-08T01:02:24;88380.28;;;19.84;58.03
8047;BME280;67150;42.516;23.358;2023-08-08T01:04:51;88374.19;;;19.85;58.11
8047;BME280;67150;42.516;23.358;2023-08-08T01:07:25;88372.44;;;19.86;58.05
8047;BME280;67150;42.516;23.358;2023-08-08T01:09:59;88370.84;;;19.85;58.04
8047;BME280;67150;42.516;23.358;2023-08-08T01:12:33;88378.84;;;19.82;58.13
8047;BME280;67150;42.516;23.358;2023-08-08T01:15:06;88386.19;;;19.85;57.97
8047;BME280;67150;42.516;23.358;2023-08-08T01:17:35;88382.19;;;19.82;58.06
8047;BME280;67150;42.516;23.358;2023-08-08T01:20:03;88385.56;;;19.83;57.96
8047;BME280;67150;42.516;23.358;2023-08-08T01:22:39;88387.63;;;19.79;58.16
8047;BME280;67150;42.516;23.358;2023-08-08T01:25:08;88382.53;;;19.79;58.17
8047;BME280;67150;42.516;23.358;2023-08-08T01:27:36;88374.56;;;19.74;58.00
8047;BME280;67150;42.516;23.358;2023-08-08T01:30:06;88385.72;;;19.81;57.92
8047;BME280;67150;42.516;23.358;2023-08-08T01:32:33;88385.25;;;19.78;58.16
8047;BME280;67150;42.516;23.358;2023-08-08T01:35:01;88391.31;;;19.77;58.23
8047;BME280;67150;42.516;23.358;2023-08-08T01:37:31;88395.63;;;19.76;57.98
8047;BME280;67150;42.516;23.358;2023-08-08T01:40:00;88399.63;;;19.79;57.96
8047;BME280;67150;42.516;23.358;2023-08-08T01:42:29;88398.03;;;19.78;58.11
8047;BME280;67150;42.516;23.358;2023-08-08T01:44:57;88399.00;;;19.77;57.95
8047;BME280;67150;42.516;23.358;2023-08-08T01:47:25;88394.06;;;19.75;57.93
8047;BME280;67150;42.516;23.358;2023-08-08T01:49:52;88393.41;;;19.73;58.20
8047;BME280;67150;42.516;23.358;2023-08-08T01:52:19;88390.69;;;19.75;58.01
8047;BME280;67150;42.516;23.358;2023-08-08T01:54:48;88392.59;;;19.73;58.20
8047;BME280;67150;42.516;23.358;2023-08-08T01:57:15;88400.47;;;19.71;58.24
8047;BME280;67150;42.516;23.358;2023-08-08T01:59:45;88408.59;;;19.75;58.03
8047;BME280;67150;42.516;23.358;2023-08-08T02:02:12;88412.72;;;19.76;57.74
8047;BME280;67150;42.516;23.358;2023-08-08T02:04:40;88412.28;;;19.72;57.95
8047;BME280;67150;42.516;23.358;2023-08-08T02:07:08;88419.31;;;19.70;57.92
8047;BME280;67150;42.516;23.358;2023-08-08T02:09:35;88399.84;;;19.61;57.74
8047;BME280;67150;42.516;23.358;2023-08-08T02:12:03;88414.84;;;19.64;57.72
8047;BME280;67150;42.516;23.358;2023-08-08T02:14:30;88421.09;;;19.70;57.28
8047;BME280;67150;42.516;23.358;2023-08-08T02:16:59;88416.13;;;19.68;57.18
8047;BME280;67150;42.516;23.358;2023-08-08T02:19:26;88422.97;;;19.68;57.39
8047;BME280;67150;42.516;23.358;2023-08-08T02:21:54;88423.50;;;19.63;57.37
8047;BME280;67150;42.516;23.358;2023-08-08T02:24:21;88423.50;;;19.63;57.17
8047;BME280;67150;42.516;23.358;2023-08-08T02:26:48;88422.22;;;19.59;57.28
8047;BME280;67150;42.516;23.358;2023-08-08T02:29:15;88436.91;;;19.57;57.31
8047;BME280;67150;42.516;23.358;2023-08-08T02:31:43;88439.47;;;19.57;57.21
8047;BME280;67150;42.516;23.358;2023-08-08T02:34:11;88446.47;;;19.55;57.08
8047;BME280;67150;42.516;23.358;2023-08-08T02:36:39;88460.88;;;19.56;57.03
8047;BME280;67150;42.516;23.358;2023-08-08T02:39:06;88453.84;;;19.50;57.10
8047;BME280;67150;42.516;23.358;2023-08-08T02:41:33;88453.53;;;19.53;57.04
8047;BME280;67150;42.516;23.358;2023-08-08T02:44:00;88442.19;;;19.55;57.00
8047;BME280;67150;42.516;23.358;2023-08-08T02:46:28;88443.63;;;19.50;57.09
8047;BME280;67150;42.516;23.358;2023-08-08T02:48:55;88447.28;;;19.55;57.11
8047;BME280;67150;42.516;23.358;2023-08-08T02:51:24;88453.53;;;19.53;57.10
8047;BME280;67150;42.516;23.358;2023-08-08T02:53:51;88443.63;;;19.50;56.87
8047;BME280;67150;42.516;23.358;2023-08-08T02:56:18;88452.28;;;19.49;57.21
8047;BME280;67150;42.516;23.358;2023-08-08T02:58:45;88456.09;;;19.53;56.91
8047;BME280;67150;42.516;23.358;2023-08-08T03:01:13;88465.69;;;19.51;57.20
8047;BME280;67150;42.516;23.358;2023-08-08T03:03:41;88465.38;;;19.46;57.16
8047;BME280;67150;42.516;23.358;2023-08-08T03:06:08;88458.47;;;19.46;57.28
8047;BME280;67150;42.516;23.358;2023-08-08T03:08:37;88450.50;;;19.41;57.13
8047;BME280;67150;42.516;23.358;2023-08-08T03:11:04;88453.53;;;19.45;56.96
8047;BME280;67150;42.516;23.358;2023-08-08T03:13:32;88465.38;;;19.46;57.19
8047;BME280;67150;42.516;23.358;2023-08-08T03:15:59;88467.94;;;19.46;56.99
8047;BME280;67150;42.516;23.358;2023-08-08T03:18:26;88469.69;;;19.45;56.90
8047;BME280;67150;42.516;23.358;2023-08-08T03:20:54;88478.16;;;19.46;56.94
8047;BME280;67150;42.516;23.358;2023-08-08T03:23:21;88471.75;;;19.42;56.90
8047;BME280;67150;42.516;23.358;2023-08-08T03:25:50;88469.19;;;19.42;56.93
8047;BME280;67150;42.516;23.358;2023-08-08T03:28:17;88474.91;;;19.36;56.92
8047;BME280;67150;42.516;23.358;2023-08-08T03:30:45;88466.16;;;19.30;56.78
8047;BME280;67150;42.516;23.358;2023-08-08T03:33:12;88475.53;;;19.38;56.76
8047;BME280;67150;42.516;23.358;2023-08-08T03:35:39;88483.22;;;19.38;56.74
8047;BME280;67150;42.516;23.358;2023-08-08T03:38:06;88486.75;;;19.37;56.61
8047;BME280;67150;42.516;23.358;2023-08-08T03:40:34;88499.03;;;19.33;56.48
8047;BME280;67150;42.516;23.358;2023-08-08T03:43:03;88497.44;;;19.32;56.60
8047;BME280;67150;42.516;23.358;2023-08-08T03:45:31;88500.78;;;19.33;56.82
8047;BME280;67150;42.516;23.358;2023-08-08T03:47:59;88494.72;;;19.34;56.58
8047;BME280;67150;42.516;23.358;2023-08-08T03:50:28;88495.34;;;19.36;56.50
8047;BME280;67150;42.516;23.358;2023-08-08T03:52:55;88502.84;;;19.29;56.48
8047;BME280;67150;42.516;23.358;2023-08-08T03:55:22;88501.09;;;19.30;56.44
8047;BME280;67150;42.516;23.358;2023-08-08T03:57:50;88503.97;;;19.27;56.30
8047;BME280;67150;42.516;23.358;2023-08-08T04:00:19;88488.34;;;19.22;56.47
8047;BME280;67150;42.516;23.358;2023-08-08T04:02:47;88512.28;;;19.29;56.17
8047;BME280;67150;42.516;23.358;2023-08-08T04:05:14;88519.47;;;19.25;56.21
8047;BME280;67150;42.516;23.358;2023-08-08T04:07:41;88511.81;;;19.25;56.17
8047;BME280;67150;42.516;23.358;2023-08-08T04:10:09;88509.41;;;19.24;56.24
8047;BME280;67150;42.516;23.358;2023-08-08T04:12:36;88520.09;;;19.27;55.99
8047;BME280;67150;42.516;23.358;2023-08-08T04:15:04;88528.91;;;19.25;56.09
8047;BME280;67150;42.516;23.358;2023-08-08T04:17:33;88524.91;;;19.22;56.04
8047;BME280;67150;42.516;23.358;2023-08-08T04:20:00;88530.16;;;19.21;55.99
8047;BME280;67150;42.516;23.358;2023-08-08T04:22:28;88531.59;;;19.15;56.20
8047;BME280;67150;42.516;23.358;2023-08-08T04:24:56;88538.00;;;19.19;56.30
8047;BME280;67150;42.516;23.358;2023-08-08T04:27:23;88531.75;;;19.22;56.27
8047;BME280;67150;42.516;23.358;2023-08-08T04:29:50;88535.25;;;19.21;56.07
8047;BME280;67150;42.516;23.358;2023-08-08T04:32:17;88534.63;;;19.19;56.23
8047;BME280;67150;42.516;23.358;2023-08-08T04:34:46;88543.25;;;19.18;56.37
8047;BME280;67150;42.516;23.358;2023-08-08T04:37:13;88547.41;;;19.19;56.25
8047;BME280;67150;42.516;23.358;2023-08-08T04:39:41;88549.66;;;19.22;56.26
8047;BME280;67150;42.516;23.358;2023-08-08T04:42:08;88553.31;;;19.19;56.02
8047;BME280;67150;42.516;23.358;2023-08-08T04:44:35;88546.59;;;19.18;56.32
8047;BME280;67150;42.516;23.358;2023-08-08T04:47:03;88543.41;;;19.16;56.16
8047;BME280;67150;42.516;23.358;2023-08-08T04:49:30;88534.78;;;19.17;56.39
8047;BME280;67150;42.516;23.358;2023-08-08T04:51:59;88544.22;;;19.17;56.38
8047;BME280;67150;42.516;23.358;2023-08-08T04:54:26;88546.13;;;19.15;56.27
8047;BME280;67150;42.516;23.358;2023-08-08T04:56:53;88557.75;;;19.17;56.33
8047;BME280;67150;42.516;23.358;2023-08-08T04:59:21;88565.28;;;19.11;56.45
8047;BME280;67150;42.516;23.358;2023-08-08T05:01:48;88560.81;;;19.13;56.43
8047;BME280;67150;42.516;23.358;2023-08-08T05:04:17;88556.66;;;19.12;56.55
8047;BME280;67150;42.516;23.358;2023-08-08T05:06:44;88546.44;;;19.12;56.30
8047;BME280;67150;42.516;23.358;2023-08-08T05:09:13;88551.53;;;19.12;56.63
8047;BME280;67150;42.516;23.358;2023-08-08T05:11:41;88561.25;;;19.08;56.53
8047;BME280;67150;42.516;23.358;2023-08-08T05:14:08;88562.06;;;19.09;56.54
8047;BME280;67150;42.516;23.358;2023-08-08T05:16:36;88574.03;;;19.08;56.54
8047;BME280;67150;42.516;23.358;2023-08-08T05:19:03;88584.09;;;19.10;56.58
8047;BME280;67150;42.516;23.358;2023-08-08T05:21:30;88575.81;;;19.08;56.81
8047;BME280;67150;42.516;23.358;2023-08-08T05:23:58;88581.69;;;19.08;56.79
8047;BME280;67150;42.516;23.358;2023-08-08T05:26:27;88597.19;;;19.07;56.78
8047;BME280;67150;42.516;23.358;2023-08-08T05:28:54;88601.34;;;19.08;57.06
8047;BME280;67150;42.516;23.358;2023-08-08T05:31:21;88609.94;;;19.07;57.13
8047;BME280;67150;42.516;23.358;2023-08-08T05:33:49;88606.75;;;19.05;57.15
8047;BME280;67150;42.516;23.358;2023-08-08T05:36:16;88603.22;;;19.06;57.05
8047;BME280;67150;42.516;23.358;2023-08-08T05:38:43;88592.56;;;19.02;57.17
8047;BME280;67150;42.516;23.358;2023-08-08T05:41:10;88598.78;;;19.08;57.35
8047;BME280;67150;42.516;23.358;2023-08-08T05:43:39;88592.38;;;19.03;57.27
8047;BME280;67150;42.516;23.358;2023-08-08T05:46:06;88594.31;;;19.01;57.26
8047;BME280;67150;42.516;23.358;2023-08-08T05:48:34;88603.53;;;19.02;57.17
8047;BME280;67150;42.516;23.358;2023-08-08T05:51:01;88611.22;;;19.02;57.25
8047;BME280;67150;42.516;23.358;2023-08-08T05:53:30;88617.78;;;19.05;57.46
8047;BME280;67150;42.516;23.358;2023-08-08T05:55:58;88614.56;;;19.03;57.37
8047;BME280;67150;42.516;23.358;2023-08-08T05:58:25;88613.75;;;19.02;57.50
8047;BME280;67150;42.516;23.358;2023-08-08T06:00:54;88614.75;;;19.01;57.77
8047;BME280;67150;42.516;23.358;2023-08-08T06:03:21;88619.03;;;19.01;57.61
8047;BME280;67150;42.516;23.358;2023-08-08T06:05:48;88619.19;;;18.99;57.75
8047;BME280;67150;42.516;23.358;2023-08-08T06:08:16;88620.78;;;19.00;57.91
8047;BME280;67150;42.516;23.358;2023-08-08T06:10:43;88616.94;;;18.96;58.02
8047;BME280;67150;42.516;23.358;2023-08-08T06:13:10;88625.25;;;18.98;58.03
8047;BME280;67150;42.516;23.358;2023-08-08T06:15:37;88621.72;;;18.99;58.02
8047;BME280;67150;42.516;23.358;2023-08-08T06:18:06;88618.41;;;18.99;58.41
8047;BME280;67150;42.516;23.358;2023-08-08T06:20:33;88620.16;;;18.98;58.51
8047;BME280;67150;42.516;23.358;2023-08-08T06:23:01;88623.19;;;19.02;58.16
8047;BME280;67150;42.516;23.358;2023-08-08T06:25:28;88613.13;;;19.00;58.46
8047;BME280;67150;42.516;23.358;2023-08-08T06:27:55;88613.44;;;19.06;58.44
8047;BME280;67150;42.516;23.358;2023-08-08T06:30:23;88619.53;;;19.05;58.19
8047;BME280;67150;42.516;23.358;2023-08-08T06:32:50;88627.50;;;19.01;58.16
8047;BME280;67150;42.516;23.358;2023-08-08T06:35:19;88615.38;;;19.03;58.13
8047;BME280;67150;42.516;23.358;2023-08-08T06:37:46;88611.38;;;19.01;58.30
8047;BME280;67150;42.516;23.358;2023-08-08T06:40:13;88603.53;;;18.94;58.23
8047;BME280;67150;42.516;23.358;2023-08-08T06:42:41;88601.28;;;18.91;58.38
8047;BME280;67150;42.516;23.358;2023-08-08T06:45:09;88614.56;;;19.03;58.22
8047;BME280;67150;42.516;23.358;2023-08-08T06:47:36;88616.97;;;19.05;57.59
